Time;durP1;ratioP1;P1;durP2;ratioP2;P2;SDS_P1;SDS_P2;PMS_P1;PMS_P2;Temp;Humidity;BMP_temperature;BMP_pressure;BME280_temperature;BME280_humidity;BME280_pressure;Samples;Min_cycle;Max_cycle;Signal;HPM_P1;HPM_P2
2022/07/10 00:00:10;;;;;;;6.55;5.35;;;15.70;99.90;;;;;;4858126;29;20132;-65
2022/07/10 00:02:42;;;;;;;8.05;5.07;;;15.70;99.90;;;;;;4857991;29;20053;-64
2022/07/10 00:05:10;;;;;;;6.68;4.72;;;15.60;99.90;;;;;;4858756;29;20049;-64
2022/07/10 00:07:46;;;;;;;7.18;5.75;;;15.60;99.90;;;;;;4851975;29;20103;-64
2022/07/10 00:10:14;;;;;;;7.97;5.38;;;15.60;99.90;;;;;;4845801;29;20534;-64
2022/07/10 00:12:42;;;;;;;8.23;5.03;;;15.50;99.90;;;;;;4857132;29;20398;-64
2022/07/10 00:15:10;;;;;;;6.68;4.95;;;15.50;99.90;;;;;;4856879;29;20069;-63
2022/07/10 00:17:39;;;;;;;9.73;6.80;;;15.50;99.90;;;;;;4872634;29;20061;-64
2022/07/10 00:20:08;;;;;;;6.78;5.68;;;15.40;99.90;;;;;;4858222;29;20505;-63
2022/07/10 00:22:36;;;;;;;6.90;5.03;;;15.40;99.90;;;;;;4872069;29;20057;-63
2022/07/10 00:25:09;;;;;;;7.63;5.55;;;15.40;99.90;;;;;;4849344;29;20069;-65
2022/07/10 00:27:37;;;;;;;7.65;5.60;;;15.30;99.90;;;;;;4836565;29;20049;-65
2022/07/10 00:30:06;;;;;;;8.07;6.07;;;15.30;99.90;;;;;;4853450;29;20458;-65
2022/07/10 00:32:34;;;;;;;8.25;5.95;;;15.30;99.90;;;;;;4838557;29;20057;-65
2022/07/10 00:35:04;;;;;;;7.28;5.35;;;15.20;99.90;;;;;;4843847;29;20061;-66
2022/07/10 00:37:32;;;;;;;8.13;5.72;;;15.20;99.90;;;;;;4836054;29;20057;-65
2022/07/10 00:40:00;;;;;;;8.43;6.40;;;15.20;99.90;;;;;;4848863;29;20557;-65
2022/07/10 00:42:27;;;;;;;7.75;6.07;;;15.10;99.90;;;;;;4856763;29;20441;-66
2022/07/10 00:44:55;;;;;;;8.18;6.50;;;15.00;99.90;;;;;;4849504;29;20109;-65
2022/07/10 00:47:22;;;;;;;10.05;7.07;;;15.00;99.90;;;;;;4858011;29;20603;-65
2022/07/10 00:49:50;;;;;;;7.47;6.30;;;15.00;99.90;;;;;;4856265;29;20045;-64
2022/07/10 00:52:20;;;;;;;9.52;6.78;;;15.00;99.90;;;;;;4858852;29;20065;-65
2022/07/10 00:54:52;;;;;;;8.88;6.68;;;14.90;99.90;;;;;;4846913;29;20050;-65
2022/07/10 00:57:21;;;;;;;10.15;6.35;;;14.90;99.90;;;;;;4845226;29;20050;-64
2022/07/10 00:59:49;;;;;;;8.15;6.07;;;14.80;99.90;;;;;;4857215;29;20449;-65
2022/07/10 01:02:17;;;;;;;8.00;6.82;;;14.80;99.90;;;;;;4852160;29;20050;-65
2022/07/10 01:04:44;;;;;;;8.70;6.68;;;14.80;99.90;;;;;;4848396;29;20077;-66
2022/07/10 01:07:15;;;;;;;8.60;6.72;;;14.80;99.90;;;;;;4852368;29;20060;-66
2022/07/10 01:09:43;;;;;;;8.90;7.17;;;14.70;99.90;;;;;;4859901;29;20516;-66
2022/07/10 01:12:12;;;;;;;8.57;6.75;;;14.80;99.90;;;;;;4838785;29;20504;-66
2022/07/10 01:14:40;;;;;;;8.98;6.75;;;14.70;99.90;;;;;;4846725;29;20140;-65
2022/07/10 01:17:08;;;;;;;10.48;6.97;;;14.70;99.90;;;;;;4839236;29;20552;-65
2022/07/10 01:19:36;;;;;;;10.07;7.38;;;14.70;99.90;;;;;;4851992;29;20065;-65
2022/07/10 01:22:04;;;;;;;8.40;7.22;;;14.60;99.90;;;;;;4856901;29;20169;-68
2022/07/10 01:24:31;;;;;;;10.00;7.68;;;14.60;99.90;;;;;;4845364;29;20057;-66
2022/07/10 01:26:58;;;;;;;9.27;7.10;;;14.60;99.90;;;;;;4856409;29;20512;-66
2022/07/10 01:29:26;;;;;;;8.95;7.35;;;14.60;99.90;;;;;;4850191;29;20048;-65
2022/07/10 01:31:54;;;;;;;8.32;6.65;;;14.60;99.90;;;;;;4844002;29;20143;-65
2022/07/10 01:34:23;;;;;;;10.45;8.18;;;14.60;99.90;;;;;;4844266;29;20037;-64
2022/07/10 01:36:51;;;;;;;10.55;7.65;;;14.50;99.90;;;;;;4856800;29;20518;-67
2022/07/10 01:39:19;;;;;;;8.68;7.28;;;14.50;99.90;;;;;;4839536;29;20048;-64
2022/07/10 01:41:46;;;;;;;11.80;7.60;;;14.50;99.90;;;;;;4837979;29;20049;-65
2022/07/10 01:44:13;;;;;;;9.15;7.32;;;14.40;99.90;;;;;;4838116;29;20568;-65
2022/07/10 01:46:48;;;;;;;9.68;7.20;;;14.40;99.90;;;;;;4843393;29;20046;-65
2022/07/10 01:49:16;;;;;;;9.30;7.65;;;14.50;99.90;;;;;;4847095;29;20133;-65
2022/07/10 01:51:43;;;;;;;9.90;6.60;;;14.50;99.90;;;;;;4842602;29;20046;-65
2022/07/10 01:54:10;;;;;;;11.48;7.00;;;14.50;99.90;;;;;;4857047;29;20249;-65
2022/07/10 01:56:38;;;;;;;10.20;6.28;;;14.50;99.90;;;;;;4844080;29;20053;-65
2022/07/10 01:59:05;;;;;;;9.32;7.03;;;14.40;99.90;;;;;;4841299;29;20118;-66
2022/07/10 02:01:33;;;;;;;8.77;6.82;;;14.50;99.90;;;;;;4837730;29;20049;-65
2022/07/10 02:06:46;;;;;;;10.95;6.63;;;14.40;99.90;;;;;;4856080;29;20049;-66
2022/07/10 02:09:14;;;;;;;11.02;6.75;;;14.40;99.90;;;;;;4856122;29;20524;-65
2022/07/10 02:11:42;;;;;;;7.13;6.20;;;14.40;99.90;;;;;;4854529;29;20056;-65
2022/07/10 02:14:09;;;;;;;11.75;6.38;;;14.40;99.90;;;;;;4836347;29;20524;-64
2022/07/10 02:16:37;;;;;;;8.60;6.78;;;14.40;99.90;;;;;;4853781;29;20077;-64
2022/07/10 02:19:07;;;;;;;9.10;6.70;;;14.50;99.90;;;;;;4850239;29;20133;-68
2022/07/10 02:21:35;;;;;;;8.18;6.55;;;14.50;99.90;;;;;;4857786;29;20050;-65
2022/07/10 02:24:02;;;;;;;10.02;5.95;;;14.50;99.90;;;;;;4842157;29;20057;-64
2022/07/10 02:26:30;;;;;;;7.55;6.47;;;14.60;99.90;;;;;;4842222;29;20057;-63
2022/07/10 02:28:57;;;;;;;8.88;5.53;;;14.60;99.90;;;;;;4836032;29;20140;-65
2022/07/10 02:31:26;;;;;;;9.25;5.85;;;14.60;99.90;;;;;;4837327;29;20058;-64
2022/07/10 02:33:53;;;;;;;6.03;4.55;;;14.60;99.90;;;;;;4866440;29;20477;-64
2022/07/10 02:36:20;;;;;;;7.75;4.88;;;14.60;99.90;;;;;;4847054;29;20112;-65
2022/07/10 02:38:48;;;;;;;7.55;5.13;;;14.60;99.90;;;;;;4850909;29;20069;-65
2022/07/10 02:41:15;;;;;;;5.60;4.25;;;14.60;99.90;;;;;;4849373;29;20114;-66
2022/07/10 02:43:43;;;;;;;8.40;4.60;;;14.70;99.90;;;;;;4836274;29;20106;-66
2022/07/10 02:46:10;;;;;;;6.50;4.05;;;14.70;99.90;;;;;;4841202;29;20057;-65
2022/07/10 02:48:38;;;;;;;8.32;4.32;;;14.70;99.90;;;;;;4843619;29;20062;-65
2022/07/10 02:51:06;;;;;;;9.82;4.07;;;14.70;99.90;;;;;;4830273;29;20062;-65
2022/07/10 02:53:35;;;;;;;6.32;3.38;;;14.70;99.90;;;;;;4853653;29;20117;-65
2022/07/10 02:56:03;;;;;;;8.88;3.08;;;14.70;99.90;;;;;;4846750;29;20680;-66
2022/07/10 02:58:31;;;;;;;5.72;3.47;;;14.80;99.90;;;;;;4853882;29;20520;-66
2022/07/10 03:00:59;;;;;;;8.02;3.47;;;14.80;99.90;;;;;;4854588;29;20050;-66
2022/07/10 03:03:26;;;;;;;6.40;3.30;;;14.80;99.90;;;;;;4855889;29;20052;-67
2022/07/10 03:05:53;;;;;;;7.22;3.20;;;14.70;99.90;;;;;;4833185;29;20077;-65
2022/07/10 03:08:21;;;;;;;6.65;3.00;;;14.70;99.90;;;;;;4854741;29;20050;-65
2022/07/10 03:10:48;;;;;;;5.20;2.83;;;14.70;99.90;;;;;;4854345;29;20059;-64
2022/07/10 03:13:15;;;;;;;5.45;2.80;;;14.60;99.90;;;;;;4859145;29;20046;-65
2022/07/10 03:15:42;;;;;;;6.45;3.08;;;14.60;99.90;;;;;;4833426;29;20501;-67
2022/07/10 03:18:10;;;;;;;9.65;3.10;;;14.50;99.90;;;;;;4864195;29;20057;-65
2022/07/10 03:20:37;;;;;;;7.03;2.90;;;14.50;99.90;;;;;;4858173;29;20053;-66
2022/07/10 03:23:04;;;;;;;4.18;2.63;;;14.40;99.90;;;;;;4857155;29;20122;-65
2022/07/10 03:25:32;;;;;;;8.25;2.97;;;14.40;99.90;;;;;;4858930;29;20137;-65
2022/07/10 03:28:00;;;;;;;5.47;2.53;;;14.40;99.90;;;;;;4853661;29;20517;-64
2022/07/10 03:30:27;;;;;;;6.90;2.80;;;14.40;99.90;;;;;;4856965;29;20642;-64
2022/07/10 03:32:54;;;;;;;7.80;2.85;;;14.40;99.90;;;;;;4846301;29;20079;-65
2022/07/10 03:35:22;;;;;;;6.18;2.85;;;14.30;99.90;;;;;;4857743;29;20046;-64
2022/07/10 03:37:49;;;;;;;8.70;3.13;;;14.40;99.90;;;;;;4857311;29;20049;-64
2022/07/10 03:40:17;;;;;;;5.45;2.97;;;14.30;99.90;;;;;;4857790;29;20046;-65
2022/07/10 03:42:44;;;;;;;7.10;2.83;;;14.30;99.90;;;;;;4858450;29;20410;-65
2022/07/10 03:45:11;;;;;;;7.93;3.03;;;14.30;99.90;;;;;;4858145;29;20370;-65
2022/07/10 03:47:38;;;;;;;6.15;3.20;;;14.40;99.90;;;;;;4855301;29;20042;-65
2022/07/10 03:50:06;;;;;;;7.60;3.17;;;14.50;99.90;;;;;;4841093;29;20482;-65
2022/07/10 03:52:33;;;;;;;6.70;3.45;;;14.40;99.90;;;;;;4856636;29;20048;-64
2022/07/10 03:55:01;;;;;;;8.23;3.67;;;14.40;99.90;;;;;;4853411;29;20465;-67
2022/07/10 04:00:14;;;;;;;7.60;4.00;;;14.40;99.90;;;;;;4856471;29;20052;-64
2022/07/10 04:02:41;;;;;;;5.47;3.58;;;14.30;99.90;;;;;;4846019;29;20042;-65
2022/07/10 04:05:09;;;;;;;7.35;3.40;;;14.30;99.90;;;;;;4856995;29;20140;-65
2022/07/10 04:07:37;;;;;;;9.05;3.78;;;14.30;99.90;;;;;;4857084;29;20056;-66
2022/07/10 04:10:05;;;;;;;7.70;3.63;;;14.40;99.90;;;;;;4837882;29;20568;-66
2022/07/10 04:12:32;;;;;;;5.68;2.70;;;14.30;99.90;;;;;;4855421;29;20068;-65
2022/07/10 04:14:59;;;;;;;8.90;3.17;;;14.20;99.90;;;;;;4838911;29;20049;-66
2022/07/10 04:17:27;;;;;;;6.07;2.70;;;14.10;99.90;;;;;;4856597;29;20113;-64
2022/07/10 04:19:54;;;;;;;12.48;3.35;;;14.10;99.90;;;;;;4870739;29;20045;-66
2022/07/10 04:22:21;;;;;;;5.80;3.03;;;14.10;99.90;;;;;;4856275;29;20049;-65
2022/07/10 04:24:50;;;;;;;5.00;2.97;;;14.10;99.90;;;;;;4846968;29;20053;-64
2022/07/10 04:27:18;;;;;;;4.72;2.55;;;14.10;99.90;;;;;;4840926;29;20527;-63
2022/07/10 04:29:45;;;;;;;6.13;2.33;;;14.00;99.90;;;;;;4856360;29;20060;-66
2022/07/10 04:32:13;;;;;;;5.47;2.60;;;13.90;99.90;;;;;;4844580;29;20089;-65
2022/07/10 04:34:41;;;;;;;6.78;2.35;;;13.90;99.90;;;;;;4849774;29;20100;-64
2022/07/10 04:37:08;;;;;;;6.72;2.67;;;13.80;99.90;;;;;;4838366;29;20421;-66
2022/07/10 04:39:40;;;;;;;5.35;2.45;;;14.00;99.90;;;;;;4855670;29;20034;-64
2022/07/10 04:42:08;;;;;;;6.40;2.03;;;13.90;99.90;;;;;;4857190;29;20050;-63
2022/07/10 04:44:38;;;;;;;6.45;2.30;;;13.90;99.90;;;;;;4833786;29;20046;-64
2022/07/10 04:47:06;;;;;;;8.80;2.30;;;13.90;99.90;;;;;;4846679;29;20045;-64
2022/07/10 04:49:34;;;;;;;4.78;1.80;;;14.00;99.90;;;;;;4855075;29;20569;-65
2022/07/10 04:52:01;;;;;;;6.40;1.90;;;14.00;99.90;;;;;;4856433;29;20042;-65
2022/07/10 04:54:29;;;;;;;6.68;1.80;;;13.90;99.90;;;;;;4847164;29;20154;-64
2022/07/10 04:56:56;;;;;;;6.47;1.90;;;14.00;99.90;;;;;;4849907;29;20042;-65
2022/07/10 04:59:23;;;;;;;4.10;1.67;;;14.00;99.90;;;;;;4860877;29;20451;-64
2022/07/10 05:01:51;;;;;;;5.72;1.55;;;14.10;99.90;;;;;;4849633;29;20049;-63
2022/07/10 05:04:18;;;;;;;5.47;2.10;;;14.10;99.90;;;;;;4839049;29;20077;-65
2022/07/10 05:06:45;;;;;;;7.15;1.67;;;14.10;99.90;;;;;;4870238;29;20165;-65
2022/07/10 05:09:13;;;;;;;6.93;1.90;;;14.20;99.90;;;;;;4853159;29;20079;-64
2022/07/10 05:11:40;;;;;;;7.75;2.00;;;14.20;99.90;;;;;;4855839;29;20140;-63
2022/07/10 05:14:07;;;;;;;6.38;1.60;;;14.30;99.90;;;;;;4848261;29;20061;-66
2022/07/10 05:16:35;;;;;;;8.55;2.08;;;14.30;99.90;;;;;;4854544;29;20512;-64
2022/07/10 05:19:02;;;;;;;5.82;1.80;;;14.40;99.90;;;;;;4849314;29;20516;-65
2022/07/10 05:21:29;;;;;;;5.38;1.60;;;14.30;99.90;;;;;;4856330;29;20054;-66
2022/07/10 05:23:56;;;;;;;6.40;1.67;;;14.40;99.90;;;;;;4856340;29;20045;-65
2022/07/10 05:26:24;;;;;;;5.82;1.85;;;14.50;99.90;;;;;;4856172;29;20080;-67
2022/07/10 05:28:51;;;;;;;4.95;1.60;;;14.60;99.90;;;;;;4856874;29;20046;-65
2022/07/10 05:31:18;;;;;;;5.55;1.95;;;14.70;99.90;;;;;;4844381;29;20509;-65
2022/07/10 05:33:46;;;;;;;4.50;1.30;;;14.70;99.90;;;;;;4867822;29;20174;-63
2022/07/10 05:36:13;;;;;;;5.50;1.60;;;14.60;99.90;;;;;;4855450;29;20060;-64
2022/07/10 05:38:40;;;;;;;6.50;1.75;;;14.50;99.90;;;;;;4856751;29;20580;-66
2022/07/10 05:41:08;;;;;;;4.22;1.50;;;14.50;99.90;;;;;;4856251;29;20577;-65
2022/07/10 05:43:35;;;;;;;4.03;1.35;;;14.50;99.90;;;;;;4849505;29;20053;-64
2022/07/10 05:46:03;;;;;;;7.45;1.73;;;14.50;99.90;;;;;;4854349;29;20140;-66
2022/07/10 05:48:30;;;;;;;4.63;1.10;;;14.50;99.90;;;;;;4838922;29;20045;-66
2022/07/10 05:50:57;;;;;;;6.10;1.52;;;14.60;99.90;;;;;;4850722;29;20134;-65
2022/07/10 05:53:45;;;;;;;6.00;1.20;;;14.50;99.90;;;;;;4845260;29;20052;-62
2022/07/10 05:56:13;;;;;;;4.97;1.38;;;14.60;99.90;;;;;;4837253;29;20060;-66
2022/07/10 05:58:40;;;;;;;3.83;1.27;;;14.50;99.90;;;;;;4845309;29;20132;-64
2022/07/10 06:01:08;;;;;;;4.80;1.35;;;14.40;99.90;;;;;;4852843;29;20568;-66
2022/07/10 06:03:35;;;;;;;4.63;1.30;;;14.40;99.90;;;;;;4848636;29;20055;-66
2022/07/10 06:06:03;;;;;;;2.65;1.05;;;14.50;99.90;;;;;;4845764;29;20050;-64
2022/07/10 06:08:30;;;;;;;5.65;1.63;;;14.40;99.90;;;;;;4858674;29;20161;-64
2022/07/10 06:10:57;;;;;;;4.88;1.42;;;14.50;99.90;;;;;;4855893;29;20045;-66
2022/07/10 06:13:25;;;;;;;4.13;1.17;;;14.50;99.90;;;;;;4854267;29;20067;-65
2022/07/10 06:15:52;;;;;;;5.50;1.30;;;14.60;99.90;;;;;;4855709;29;20049;-64
2022/07/10 06:18:20;;;;;;;6.78;1.35;;;14.70;99.90;;;;;;4848383;29;20520;-65
2022/07/10 06:20:47;;;;;;;2.78;1.25;;;14.70;99.90;;;;;;4847742;29;20060;-64
2022/07/10 06:23:14;;;;;;;5.80;1.05;;;14.70;99.90;;;;;;4850937;29;20076;-66
2022/07/10 06:25:41;;;;;;;6.60;1.35;;;14.70;99.90;;;;;;4837130;29;20109;-66
2022/07/10 06:28:09;;;;;;;11.68;4.38;;;14.80;99.90;;;;;;4870367;29;20065;-67
2022/07/10 06:30:36;;;;;;;7.10;1.80;;;14.80;99.90;;;;;;4866221;29;20438;-66
2022/07/10 06:33:04;;;;;;;5.95;1.40;;;14.80;99.90;;;;;;4838567;29;20132;-65
2022/07/10 06:35:31;;;;;;;3.92;1.40;;;14.90;99.90;;;;;;4849110;29;20044;-66
2022/07/10 06:38:00;;;;;;;5.43;1.80;;;14.90;99.90;;;;;;4855270;29;20370;-65
2022/07/10 06:40:29;;;;;;;4.85;1.58;;;15.00;99.90;;;;;;4849006;29;20049;-65
2022/07/10 06:42:57;;;;;;;6.68;1.50;;;14.80;99.90;;;;;;4850358;29;20052;-67
2022/07/10 06:45:25;;;;;;;5.57;1.20;;;14.90;99.90;;;;;;4839242;29;20034;-66
2022/07/10 06:47:59;;;;;;;4.68;1.23;;;15.10;99.90;;;;;;4855298;29;20501;-67
2022/07/10 06:50:34;;;;;;;4.07;1.70;;;15.00;99.90;;;;;;4853490;29;20426;-67
2022/07/10 06:53:02;;;;;;;6.50;1.60;;;15.10;99.90;;;;;;4860603;29;20402;-67
2022/07/10 06:55:30;;;;;;;5.95;1.73;;;15.30;99.90;;;;;;4850609;29;20054;-66
2022/07/10 06:57:58;;;;;;;5.15;1.60;;;15.50;99.90;;;;;;4821201;29;20072;-64
2022/07/10 07:00:26;;;;;;;5.30;1.20;;;15.80;99.90;;;;;;4852515;29;20136;-66
2022/07/10 07:02:54;;;;;;;4.75;1.75;;;15.90;99.90;;;;;;4843925;29;21024;-66
2022/07/10 07:05:21;;;;;;;3.80;1.10;;;15.70;99.90;;;;;;4854018;29;20053;-64
2022/07/10 07:07:48;;;;;;;4.78;1.25;;;15.60;99.90;;;;;;4854980;29;20046;-67
2022/07/10 07:10:16;;;;;;;8.52;1.50;;;15.20;99.90;;;;;;4853706;29;20045;-67
2022/07/10 07:12:43;;;;;;;5.38;1.20;;;15.30;99.90;;;;;;4843554;29;20053;-67
2022/07/10 07:15:10;;;;;;;4.35;1.25;;;15.40;99.90;;;;;;4823181;29;20080;-67
2022/07/10 07:18:16;;;;;;;3.05;1.10;;;15.60;99.90;;;;;;4858755;29;20483;-69
2022/07/10 07:23:23;;;;;;;3.20;1.00;;;16.20;99.90;;;;;;4839929;29;20544;-67
2022/07/10 07:25:50;;;;;;;6.07;1.20;;;16.40;99.90;;;;;;4842198;29;20057;-67
2022/07/10 07:28:19;;;;;;;3.25;1.02;;;16.70;99.90;;;;;;4858553;29;20060;-68
2022/07/10 07:30:49;;;;;;;4.47;1.00;;;17.20;99.90;;;;;;4854587;29;20140;-67
2022/07/10 07:33:16;;;;;;;2.90;0.98;;;17.40;99.90;;;;;;4840663;29;20053;-66
2022/07/10 07:35:44;;;;;;;5.60;1.60;;;17.30;99.90;;;;;;4846829;29;20041;-67
2022/07/10 07:38:11;;;;;;;3.17;0.93;;;17.40;99.90;;;;;;4841738;29;20390;-65
2022/07/10 07:40:39;;;;;;;3.00;0.98;;;17.30;99.90;;;;;;4846387;29;20400;-67
2022/07/10 07:43:07;;;;;;;2.75;0.73;;;16.90;99.90;;;;;;4859637;29;20481;-64
2022/07/10 07:45:34;;;;;;;3.17;0.90;;;16.80;99.90;;;;;;4840700;29;20057;-65
2022/07/10 07:48:02;;;;;;;3.65;1.00;;;16.80;99.90;;;;;;4851944;29;20080;-65
2022/07/10 07:50:35;;;;;;;3.50;0.90;;;16.90;99.90;;;;;;4860766;29;20477;-65
2022/07/10 07:53:04;;;;;;;2.88;1.00;;;16.90;99.90;;;;;;4849465;29;20049;-66
2022/07/10 07:55:33;;;;;;;2.20;0.70;;;17.10;99.90;;;;;;4844190;29;20053;-64
2022/07/10 07:58:02;;;;;;;3.42;0.75;;;17.40;99.90;;;;;;4843110;29;20123;-67
2022/07/10 08:00:30;;;;;;;5.82;1.25;;;17.60;99.90;;;;;;4830856;29;20070;-67
2022/07/10 08:03:00;;;;;;;3.22;1.10;;;17.80;99.90;;;;;;4845112;29;20041;-65
2022/07/10 08:05:29;;;;;;;4.95;1.10;;;17.70;99.90;;;;;;4845131;29;20505;-63
2022/07/10 08:08:04;;;;;;;3.88;0.80;;;17.80;99.90;;;;;;4844142;29;20073;-65
2022/07/10 08:10:32;;;;;;;2.28;0.80;;;17.50;99.90;;;;;;4831979;29;20065;-65
2022/07/10 08:12:59;;;;;;;3.30;0.90;;;17.60;99.90;;;;;;4841706;29;20544;-64
2022/07/10 08:15:26;;;;;;;4.22;1.10;;;17.80;99.90;;;;;;4840915;29;20494;-64
2022/07/10 08:17:56;;;;;;;2.70;0.90;;;17.70;99.90;;;;;;4840956;29;20058;-65
2022/07/10 08:20:25;;;;;;;4.25;0.68;;;17.80;99.90;;;;;;4846677;29;20065;-64
2022/07/10 08:22:53;;;;;;;3.13;0.90;;;17.90;99.90;;;;;;4843170;29;20455;-63
2022/07/10 08:25:29;;;;;;;3.55;1.02;;;17.90;99.90;;;;;;4861193;29;20068;-66
2022/07/10 08:28:05;;;;;;;5.53;1.10;;;18.20;99.90;;;;;;4857416;29;20125;-65
2022/07/10 08:30:33;;;;;;;3.58;0.80;;;18.00;99.90;;;;;;4852000;29;20050;-67
2022/07/10 08:33:00;;;;;;;3.72;0.90;;;18.00;99.90;;;;;;4853178;29;20069;-64
2022/07/10 08:35:28;;;;;;;3.13;0.70;;;17.90;99.90;;;;;;4835797;29;20053;-66
2022/07/10 08:37:55;;;;;;;3.05;0.80;;;17.70;99.90;;;;;;4839001;29;20056;-64
2022/07/10 08:40:22;;;;;;;2.67;0.82;;;17.90;99.90;;;;;;4839473;29;20501;-65
2022/07/10 08:42:50;;;;;;;5.47;1.00;;;17.90;99.90;;;;;;4842081;29;20839;-66
2022/07/10 08:45:18;;;;;;;3.28;0.90;;;18.10;99.90;;;;;;4847148;29;20516;-67
2022/07/10 08:47:45;;;;;;;4.93;0.90;;;18.30;99.90;;;;;;4841899;29;20057;-64
2022/07/10 08:50:23;;;;;;;3.97;1.10;;;18.40;99.90;;;;;;4823280;29;20141;-64
2022/07/10 08:52:56;;;;;;;1.80;0.98;;;18.60;99.90;;;;;;4848823;29;20045;-66
2022/07/10 08:55:25;;;;;;;1.65;0.60;;;18.60;99.90;;;;;;4857125;29;20088;-66
2022/07/10 08:57:57;;;;;;;6.50;1.13;;;18.50;99.90;;;;;;4866177;29;20045;-65
2022/07/10 09:00:25;;;;;;;4.63;1.17;;;18.50;99.90;;;;;;4854353;29;20061;-65
2022/07/10 09:02:56;;;;;;;2.33;0.75;;;18.40;99.90;;;;;;4836817;29;20539;-67
2022/07/10 09:05:25;;;;;;;3.00;1.00;;;18.30;99.90;;;;;;4850306;29;20129;-66
2022/07/10 09:07:54;;;;;;;2.00;0.88;;;18.40;99.90;;;;;;4847803;29;20090;-64
2022/07/10 09:10:25;;;;;;;4.25;0.75;;;18.80;99.90;;;;;;4846671;29;20153;-67
2022/07/10 09:12:57;;;;;;;;;;;18.90;99.90;;;;;;4852890;29;20054;-65
2022/07/10 09:15:26;;;;;;;2.45;0.80;;;18.50;99.90;;;;;;4845491;29;20370;-65
2022/07/10 09:17:56;;;;;;;1.55;0.73;;;18.80;99.90;;;;;;4827136;29;20129;-66
2022/07/10 09:20:29;;;;;;;2.80;0.77;;;18.90;99.90;;;;;;4850196;29;20117;-67
2022/07/10 09:22:57;;;;;;;3.05;1.00;;;18.80;99.90;;;;;;4843762;29;20379;-66
2022/07/10 09:25:34;;;;;;;1.95;0.73;;;19.30;99.90;;;;;;4842211;29;20046;-68
2022/07/10 09:28:05;;;;;;;3.60;0.80;;;19.40;99.90;;;;;;4838455;29;20049;-64
2022/07/10 09:30:34;;;;;;;2.35;0.70;;;19.30;99.90;;;;;;4842411;29;20049;-66
2022/07/10 09:33:29;;;;;;;1.85;0.80;;;19.30;99.90;;;;;;4843183;29;20050;-67
2022/07/10 09:36:05;;;;;;;2.13;0.73;;;19.60;99.90;;;;;;4849517;29;20847;-64
2022/07/10 09:38:45;;;;;;;3.70;0.60;;;19.50;99.90;;;;;;4873716;29;20056;-65
2022/07/10 09:41:12;;;;;;;3.00;1.20;;;19.10;99.90;;;;;;4854063;29;20535;-65
2022/07/10 09:43:55;;;;;;;1.83;0.80;;;19.20;99.90;;;;;;4850326;29;20133;-65
2022/07/10 09:46:30;;;;;;;2.35;0.75;;;19.20;99.90;;;;;;4842764;29;20049;-66
2022/07/10 09:49:11;;;;;;;2.83;0.68;;;18.80;99.90;;;;;;4862577;29;20125;-67
2022/07/10 09:51:40;;;;;;;2.63;1.00;;;18.80;99.90;;;;;;4846494;29;20052;-68
2022/07/10 09:54:15;;;;;;;4.93;0.85;;;19.30;99.90;;;;;;4850493;29;20401;-68
2022/07/10 09:56:47;;;;;;;1.38;0.52;;;19.20;99.90;;;;;;4853935;29;20145;-68
2022/07/10 09:59:19;;;;;;;2.42;0.60;;;19.10;99.90;;;;;;4840836;29;20580;-68
2022/07/10 10:01:49;;;;;;;2.05;0.70;;;19.20;99.90;;;;;;4852987;29;20044;-68
2022/07/10 10:04:18;;;;;;;4.18;0.60;;;19.00;99.90;;;;;;4855297;29;20631;-68
2022/07/10 10:06:51;;;;;;;3.13;1.15;;;18.80;99.90;;;;;;4851250;29;20451;-69
2022/07/10 10:09:26;;;;;;;2.10;0.82;;;19.20;99.90;;;;;;4852385;29;20100;-68
2022/07/10 10:12:00;;;;;;;5.43;1.02;;;19.90;99.90;;;;;;4852764;29;20049;-68
2022/07/10 10:14:28;;;;;;;3.72;0.98;;;20.10;99.90;;;;;;4852443;29;20037;-66
2022/07/10 10:16:58;;;;;;;2.42;0.63;;;20.10;99.90;;;;;;4853730;29;20082;-67
2022/07/10 10:22:13;;;;;;;3.42;0.80;;;19.70;99.90;;;;;;4838888;29;20480;-66
2022/07/10 10:24:43;;;;;;;3.47;1.48;;;19.30;99.90;;;;;;4851096;29;20049;-66
2022/07/10 10:27:10;;;;;;;5.68;1.30;;;19.00;99.90;;;;;;4858314;29;20132;-67
2022/07/10 10:29:39;;;;;;;5.18;0.85;;;18.90;99.90;;;;;;4872450;29;20049;-66
2022/07/10 10:32:08;;;;;;;2.90;0.77;;;18.30;99.90;;;;;;4853543;29;20424;-67
2022/07/10 10:34:42;;;;;;;3.10;0.80;;;18.50;99.90;;;;;;4846253;29;20050;-68
2022/07/10 10:37:40;;;;;;;4.88;1.20;;;18.40;99.90;;;;;;4841340;29;20470;-68
2022/07/10 10:40:10;;;;;;;4.88;1.05;;;18.90;99.90;;;;;;4851762;29;20054;-66
2022/07/10 10:42:44;;;;;;;2.90;0.90;;;18.70;99.90;;;;;;4853856;29;20045;-65
2022/07/10 10:45:24;;;;;;;4.53;0.93;;;18.60;99.90;;;;;;4850823;29;20046;-67
2022/07/10 10:48:08;;;;;;;3.30;1.00;;;18.70;99.90;;;;;;4856793;29;20397;-68
2022/07/10 10:50:59;;;;;;;1.55;0.80;;;19.10;99.90;;;;;;4853365;29;20052;-66
2022/07/10 10:53:28;;;;;;;5.13;0.90;;;19.60;99.90;;;;;;4840391;29;20546;-67
2022/07/10 10:56:04;;;;;;;4.55;1.10;;;19.40;99.90;;;;;;4864133;29;20116;-67
2022/07/10 10:58:40;;;;;;;2.70;0.80;;;19.80;99.90;;;;;;4852192;29;20132;-68
2022/07/10 11:01:20;;;;;;;3.47;1.10;;;19.90;99.90;;;;;;4852027;29;20044;-67
2022/07/10 11:04:12;;;;;;;3.58;0.93;;;19.60;99.90;;;;;;4855038;29;20412;-66
2022/07/10 11:06:50;;;;;;;3.17;1.00;;;19.70;99.90;;;;;;4854266;29;20501;-68
2022/07/10 11:09:29;;;;;;;3.55;1.00;;;19.50;99.90;;;;;;4851850;29;20073;-66
2022/07/10 11:12:06;;;;;;;4.22;1.40;;;19.00;99.90;;;;;;4837913;29;20069;-68
2022/07/10 11:14:39;;;;;;;3.47;1.00;;;19.00;99.90;;;;;;4855018;29;20465;-68
2022/07/10 11:17:08;;;;;;;2.85;0.88;;;18.70;99.90;;;;;;4851593;29;20418;-69
2022/07/10 11:19:36;;;;;;;2.72;0.90;;;18.60;99.90;;;;;;4852709;29;20358;-67
2022/07/10 11:22:07;;;;;;;2.63;1.02;;;18.60;99.90;;;;;;4857992;29;20064;-67
2022/07/10 11:25:17;;;;;;;2.60;0.90;;;18.50;99.90;;;;;;4859054;29;20212;-66
2022/07/10 11:28:11;;;;;;;5.28;1.00;;;18.20;99.90;;;;;;4855330;29;20063;-69
2022/07/10 11:30:50;;;;;;;4.57;1.98;;;18.30;99.90;;;;;;4852351;29;20556;-68
2022/07/10 11:33:20;;;;;;;4.05;1.00;;;18.60;99.90;;;;;;4847135;29;20520;-67
2022/07/10 11:35:53;;;;;;;2.05;0.95;;;18.60;99.90;;;;;;4841148;29;20088;-67
2022/07/10 11:38:21;;;;;;;4.63;1.00;;;19.00;99.90;;;;;;4841197;29;20057;-67
2022/07/10 11:40:49;;;;;;;3.45;1.08;;;19.20;99.90;;;;;;4857816;29;20496;-68
2022/07/10 11:43:23;;;;;;;5.22;1.10;;;19.50;99.90;;;;;;4853586;29;20045;-67
2022/07/10 11:45:53;;;;;;;3.55;0.90;;;19.50;99.90;;;;;;4850676;29;20580;-67
2022/07/10 11:48:23;;;;;;;4.30;1.17;;;19.50;99.90;;;;;;4854282;29;20053;-68
2022/07/10 11:50:51;;;;;;;2.58;0.80;;;19.90;99.90;;;;;;4855349;29;20102;-67
2022/07/10 11:53:28;;;;;;;4.50;0.95;;;20.20;99.90;;;;;;4843082;29;20500;-68
2022/07/10 11:55:55;;;;;;;3.60;0.80;;;20.40;99.90;;;;;;4859054;29;20053;-69
2022/07/10 11:58:23;;;;;;;3.50;0.90;;;20.80;99.90;;;;;;4859949;29;20053;-68
2022/07/10 12:01:08;;;;;;;2.75;1.10;;;21.30;99.90;;;;;;4850117;29;20412;-68
2022/07/10 12:03:36;;;;;;;3.33;1.02;;;21.60;99.90;;;;;;4848052;29;20577;-65
2022/07/10 12:06:06;;;;;;;3.03;0.80;;;21.80;99.90;;;;;;4854921;29;20425;-67
2022/07/10 12:08:46;;;;;;;3.10;0.85;;;21.70;99.90;;;;;;4852996;29;20064;-67
2022/07/10 12:11:15;;;;;;;1.23;0.63;;;21.20;99.90;;;;;;4843212;29;20052;-67
2022/07/10 12:13:44;;;;;;;2.97;0.60;;;20.70;99.90;;;;;;4857076;29;20072;-65
2022/07/10 12:16:12;;;;;;;3.13;0.80;;;20.60;99.90;;;;;;4856297;29;20053;-66
2022/07/10 12:18:41;;;;;;;1.90;0.80;;;20.60;99.90;;;;;;4846847;29;20394;-66
2022/07/10 12:21:12;;;;;;;3.70;1.13;;;20.50;99.90;;;;;;4848504;29;20560;-66
2022/07/10 12:23:41;;;;;;;5.90;2.60;;;20.70;99.90;;;;;;4855345;29;20048;-65
2022/07/10 12:26:10;;;;;;;4.30;1.98;;;20.40;99.90;;;;;;4841918;29;20600;-68
2022/07/10 12:28:52;;;;;;;7.05;3.92;;;20.60;99.90;;;;;;4842243;29;20041;-66
2022/07/10 12:31:28;;;;;;;6.72;1.60;;;20.50;99.90;;;;;;4840569;29;20109;-66
2022/07/10 12:33:57;;;;;;;4.00;1.60;;;20.60;99.90;;;;;;4837784;29;20050;-67
2022/07/10 12:36:25;;;;;;;4.32;1.90;;;20.60;99.90;;;;;;4837187;29;20501;-67
2022/07/10 12:38:55;;;;;;;3.67;1.38;;;20.80;99.90;;;;;;4848308;29;20123;-67
2022/07/10 12:41:24;;;;;;;3.10;1.02;;;20.90;99.90;;;;;;4846235;29;20053;-66
2022/07/10 12:43:53;;;;;;;2.72;1.25;;;20.60;99.90;;;;;;4846936;29;20118;-68
2022/07/10 12:46:22;;;;;;;1.92;0.85;;;20.30;99.90;;;;;;4855901;29;20509;-67
2022/07/10 12:49:02;;;;;;;4.30;0.95;;;19.90;99.90;;;;;;4850267;29;20667;-67
2022/07/10 12:51:32;;;;;;;5.93;1.13;;;19.70;99.90;;;;;;4838857;29;20061;-68
2022/07/10 12:54:36;;;;;;;2.22;0.85;;;19.80;99.90;;;;;;4853320;29;20525;-66
2022/07/10 12:57:05;;;;;;;3.88;1.05;;;19.80;99.90;;;;;;4848309;29;20136;-68
2022/07/10 12:59:37;;;;;;;4.43;1.77;;;20.00;99.90;;;;;;4840290;29;20051;-67
2022/07/10 13:02:21;;;;;;;2.67;0.80;;;20.30;99.90;;;;;;4851164;29;20105;-68
2022/07/10 13:04:56;;;;;;;2.08;0.88;;;20.40;99.90;;;;;;4855534;29;20057;-67
2022/07/10 13:07:34;;;;;;;3.83;0.93;;;20.20;99.90;;;;;;4854308;29;20485;-67
2022/07/10 13:10:04;;;;;;;2.63;1.15;;;19.90;99.90;;;;;;4844150;29;20045;-66